Terminal Aerodrome Forecast
Issued by NWS Charleston, WV

Current Version | Previous Version | Graphics & Text | Print | Product List | Glossary On
Versions: 1 2 3 4 5 6 7 8 9 10 11 12 13 14 15 16 17 18 19 20 21 22 23 24 25 26 27
902
FTUS41 KRLX 231848 AAA
TAFBKW
TAF AMD
KBKW 231848Z 2319/2418 24008KT P6SM BKN025
      TEMPO 2319/2322 BKN035
     FM232200 22008KT P6SM BKN050
     FM240100 17008KT P6SM SCT090
     FM240700 15008KT P6SM SCT200=

USA.gov is the U.S. government's official web portal to all federal, state and local government web resources and services.